FW0065 Weather Reports


Display with metric or nautical units.
time (UTC)temp
F
wind
direction
speed
MPH
gust
MPH
rain 1hr
in
rain 24hr
in
rain mn
in
humidity
%
barometer
mb
20180622223004 43 208 2.0 3.0 0.00 0.00 0.00 76 1028.5
20180622222004 41 208 1.0 2.0 0.00 0.00 0.00 79 1028.4
20180622221003 39 208 1.0 3.0 0.00 0.00 0.00 81 1028.3
20180622220004 36 208 1.0 2.0 0.00 0.00 0.00 84 1028.4
20180622215003 34 208 0.0 2.0 0.00 0.00 0.00 87 1028.4
20180622214004 32 208 1.0 2.0 0.00 0.00 0.00 91 1028.3
20180622213004 30 208 1.0 3.0 0.00 0.00 0.00 92 1028.2
20180622212004 29 208 1.0 2.0 0.00 0.00 0.00 91 1028.2
20180622211004 28 208 0.0 1.0 0.00 0.00 0.00 91 1028.0
20180622210004 28 0 0.0 0.0 0.00 0.00 0.00 91 1027.9
20180622205004 28 208 0.0 1.0 0.00 0.00 0.00 91 1027.8
20180622204004 28 208 0.0 1.0 0.00 0.00 0.00 90 1027.7
20180622203004 28 208 1.0 2.0 0.00 0.00 0.00 90 1027.8
20180622202004 28 208 1.0 2.0 0.00 0.00 0.00 90 1027.7
20180622201004 29 208 1.0 2.0 0.00 0.00 0.00 90 1027.6
20180622200004 28 208 0.0 1.0 0.00 0.00 0.00 90 1027.4
20180622195004 29 208 0.0 1.0 0.00 0.00 0.00 90 1027.4
20180622194004 28 208 0.0 1.0 0.00 0.00 0.00 89 1027.3
20180622193003 28 208 1.0 2.0 0.00 0.00 0.00 89 1027.3
20180622192004 29 208 1.0 3.0 0.00 0.00 0.00 89 1027.2
20180622191004 29 207 0.0 1.0 0.00 0.00 0.00 89 1027.1
20180622190001 29 207 0.0 1.0 0.00 0.00 0.00 88 1027.0
20180622185001 29 207 1.0 2.0 0.00 0.00 0.00 88 1027.0
20180622184000 30 207 1.0 2.0 0.00 0.00 0.00 89 1026.9
20180622183001 30 207 0.0 1.0 0.00 0.00 0.00 88 1026.9
20180622182001 30 207 0.0 1.0 0.00 0.00 0.00 88 1027.0
20180622181000 30 207 1.0 2.0 0.00 0.00 0.00 88 1027.1
20180622180001 30 203 1.0 3.0 0.00 0.00 0.00 88 1027.2
20180622175001 30 188 0.0 2.0 0.00 0.00 0.00 87 1027.2
20180622174000 30 188 0.0 2.0 0.00 0.00 0.00 88 1027.1
20180622173001 30 0 0.0 0.0 0.00 0.00 0.00 87 1027.1
20180622172001 30 188 0.0 2.0 0.00 0.00 0.00 87 1027.2
20180622171000 30 188 0.0 1.0 0.00 0.00 0.00 87 1027.1
20180622170001 30 188 1.0 2.0 0.00 0.00 0.00 87 1027.1
20180622165001 30 188 1.0 3.0 0.00 0.00 0.00 86 1027.2
20180622164001 30 188 0.0 2.0 0.00 0.00 0.00 86 1027.3
20180622163001 30 188 0.0 2.0 0.00 0.00 0.00 86 1027.3
20180622162001 31 188 0.0 2.0 0.00 0.00 0.00 86 1027.4
20180622161001 31 188 0.0 2.0 0.00 0.00 0.00 84 1027.4
20180622160001 32 188 1.0 2.0 0.00 0.00 0.00 84 1027.4
20180622155001 32 188 1.0 2.0 0.00 0.00 0.00 85 1027.4
20180622154001 32 188 0.0 2.0 0.00 0.00 0.00 85 1027.3
20180622153001 32 188 0.0 2.0 0.00 0.00 0.00 84 1027.4
20180622152002 32 0 0.0 0.0 0.00 0.00 0.00 84 1027.5
20180622151001 33 201 1.0 3.0 0.00 0.00 0.00 83 1027.4
20180622150001 33 251 1.0 3.0 0.00 0.00 0.00 83 1027.4
20180622145001 33 214 1.0 2.0 0.00 0.00 0.00 83 1027.4
20180622144001 33 214 0.0 2.0 0.00 0.00 0.00 82 1027.5
20180622143002 33 214 0.0 1.0 0.00 0.00 0.00 82 1027.5
20180622142001 33 214 0.0 1.0 0.00 0.00 0.00 82 1027.8
20180622141001 33 214 0.0 1.0 0.00 0.00 0.00 82 1027.7
20180622140001 34 214 0.0 1.0 0.00 0.00 0.00 80 1027.9
20180622135000 34 214 1.0 2.0 0.00 0.00 0.00 80 1027.9
20180622134001 35 214 1.0 2.0 0.00 0.00 0.00 80 1027.9
20180622133000 35 214 0.0 1.0 0.00 0.00 0.00 78 1028.0
20180622132001 35 214 0.0 1.0 0.00 0.00 0.00 78 1028.0
20180622131001 36 223 1.0 2.0 0.00 0.00 0.00 79 1028.1
20180622130001 36 310 0.0 2.0 0.00 0.00 0.00 79 1028.2
20180622125001 36 0 0.0 0.0 0.00 0.00 0.00 78 1028.2
20180622124001 36 310 0.0 1.0 0.00 0.00 0.00 77 1028.2
20180622123001 36 284 1.0 3.0 0.00 0.00 0.00 76 1028.3
20180622122001 37 242 0.0 1.0 0.00 0.00 0.00 76 1028.3
20180622121001 38 242 0.0 1.0 0.00 0.00 0.00 75 1028.2
20180622120001 38 242 1.0 2.0 0.00 0.00 0.00 73 1028.2
20180622115002 38 242 0.0 2.0 0.00 0.00 0.00 72 1028.3
20180622114001 39 242 0.0 1.0 0.00 0.00 0.00 73 1028.3
20180622113001 39 242 0.0 1.0 0.00 0.00 0.00 72 1028.3
20180622112001 40 242 1.0 2.0 0.00 0.00 0.00 71 1028.3
20180622111001 40 242 1.0 2.0 0.00 0.00 0.00 69 1028.3
20180622110001 40 242 1.0 2.0 0.00 0.00 0.00 71 1028.2
20180622105001 40 242 1.0 2.0 0.00 0.00 0.00 73 1028.2
20180622104001 40 242 0.0 1.0 0.00 0.00 0.00 74 1028.2
20180622103001 40 242 1.0 2.0 0.00 0.00 0.00 73 1028.2
20180622102000 41 242 0.0 2.0 0.00 0.00 0.00 73 1028.1
20180622101001 41 242 0.0 1.0 0.00 0.00 0.00 72 1028.0
20180622100001 42 242 0.0 1.0 0.00 0.00 0.00 70 1027.8
20180622095002 42 242 0.0 1.0 0.00 0.00 0.00 70 1027.8
20180622094001 43 242 0.0 2.0 0.00 0.00 0.00 68 1027.8
20180622093002 44 0 0.0 0.0 0.00 0.00 0.00 67 1027.6
20180622092003 44 0 0.0 0.0 0.00 0.00 0.00 65 1027.6
20180622091001 46 0 0.0 0.0 0.00 0.00 0.00 63 1027.5
20180622090001 47 242 0.0 1.0 0.00 0.00 0.00 62 1027.3
20180622085001 47 242 0.0 1.0 0.00 0.00 0.00 61 1027.2
20180622084001 48 242 0.0 2.0 0.00 0.00 0.00 59 1027.2
20180622083002 50 242 0.0 1.0 0.00 0.00 0.00 56 1027.0
20180622082002 51 242 0.0 2.0 0.00 0.00 0.00 54 1027.0
20180622081001 51 242 0.0 2.0 0.00 0.00 0.00 55 1026.9
20180622080001 51 242 0.0 1.0 0.00 0.00 0.00 57 1026.8
20180622075001 52 242 0.0 2.0 0.00 0.00 0.00 56 1026.7
20180622074001 53 242 0.0 1.0 0.00 0.00 0.00 53 1026.6
20180622073001 54 242 1.0 2.0 0.00 0.00 0.00 51 1026.5
20180622072001 55 242 1.0 2.0 0.00 0.00 0.00 50 1026.3
20180622071001 57 242 1.0 3.0 0.00 0.00 0.00 47 1026.3
20180622070001 59 246 2.0 4.0 0.00 0.00 0.00 44 1026.3
20180622065001 61 246 3.0 7.0 0.00 0.00 0.00 43 1026.2
20180622064001 62 240 3.0 5.0 0.00 0.00 0.00 42 1026.2
20180622063002 62 242 2.0 7.0 0.00 0.00 0.00 41 1026.2
20180622062001 62 236 2.0 5.0 0.00 0.00 0.00 41 1026.1
20180622061001 63 255 2.0 5.0 0.00 0.00 0.00 40 1026.2
20180622060001 63 360 1.0 3.0 0.00 0.00 0.00 37 1026.1
20180622055001 63 359 2.0 4.0 0.00 0.00 0.00 36 1026.1
20180622054001 63 335 2.0 5.0 0.00 0.00 0.00 36 1026.1
20180622053002 63 296 2.0 5.0 0.00 0.00 0.00 35 1026.1
20180622052000 64 282 3.0 8.0 0.00 0.00 0.00 35 1026.1
20180622051001 64 263 2.0 7.0 0.00 0.00 0.00 34 1026.1
20180622050001 64 219 1.0 4.0 0.00 0.00 0.00 33 1026.1
20180622045001 66 235 3.0 6.0 0.00 0.00 0.00 33 1026.0
20180622044001 67 345 1.0 4.0 0.00 0.00 0.00 32 1026.1
20180622043001 67 9 1.0 3.0 0.00 0.00 0.00 32 1026.1
20180622042001 67 346 2.0 4.0 0.00 0.00 0.00 33 1026.3
20180622041001 66 328 3.0 7.0 0.00 0.00 0.00 33 1026.4
20180622040002 66 121 2.0 7.0 0.00 0.00 0.00 34 1026.5
20180622035001 66 229 2.0 4.0 0.00 0.00 0.00 33 1026.4
20180622034001 66 253 3.0 9.0 0.00 0.00 0.00 34 1026.6
20180622033001 66 278 4.0 8.0 0.00 0.00 0.00 34 1026.6
20180622032001 66 259 4.0 9.0 0.00 0.00 0.00 33 1026.6
20180622031001 66 273 3.0 8.0 0.00 0.00 0.00 35 1026.8
20180622030002 67 17 3.0 6.0 0.00 0.00 0.00 34 1026.9
20180622025001 65 216 2.0 5.0 0.00 0.00 0.00 36 1027.1
20180622024001 64 271 3.0 7.0 0.00 0.00 0.00 36 1027.3
20180622023001 65 265 3.0 9.0 0.00 0.00 0.00 37 1027.4
20180622022001 66 44 2.0 6.0 0.00 0.00 0.00 37 1027.4
20180622021001 65 139 2.0 8.0 0.00 0.00 0.00 37 1027.6
20180622020001 67 15 3.0 7.0 0.00 0.00 0.00 36 1027.8
20180622015001 65 344 3.0 6.0 0.00 0.00 0.00 40 1028.2
20180622014001 64 309 2.0 6.0 0.00 0.00 0.00 42 1028.4
20180622013001 66 32 2.0 4.0 0.00 0.00 0.00 40 1028.6
20180622012000 65 16 2.0 6.0 0.00 0.00 0.00 43 1028.7
20180622011001 65 12 2.0 5.0 0.00 0.00 0.00 46 1029.0
20180622010001 62 108 2.0 5.0 0.00 0.00 0.00 47 1029.0
20180622005001 64 29 2.0 5.0 0.00 0.00 0.00 47 1029.2
20180622004001 63 28 2.0 5.0 0.00 0.00 0.00 50 1029.3
20180622003002 61 341 2.0 5.0 0.00 0.00 0.00 52 1029.4
20180622002001 60 323 1.0 3.0 0.00 0.00 0.00 54 1029.4
20180622001000 58 323 1.0 2.0 0.00 0.00 0.00 55 1029.5
20180622000001 57 323 1.0 3.0 0.00 0.00 0.00 58 1029.6
20180621235001 55 323 1.0 2.0 0.00 0.00 0.00 62 1029.7
20180621234000 54 323 1.0 2.0 0.00 0.00 0.00 62 1029.7
20180621233001 52 323 1.0 2.0 0.00 0.00 0.00 67 1029.7
20180621232001 52 323 1.0 2.0 0.00 0.00 0.00 67 1029.7
20180621231001 50 293 1.0 3.0 0.00 0.00 0.00 70 1029.8
20180621230002 49 209 1.0 2.0 0.00 0.00 0.00 71 1029.6
20180621225001 47 209 1.0 2.0 0.00 0.00 0.00 74 1029.5
20180621224001 45 215 1.0 3.0 0.00 0.00 0.00 76 1029.6